logo
Rechercher aéroport 
image banner adimage banner adimage banner ad
image banner ad

EPHER - Herburtowo

Situé à , Poland

ICAO - , IATA -

Données fournies par Airmate  

Information générale

Coordonnées: N52°54'8" E16°7'46"
Élévation : 147 feet MSL.
 
Voir autres Aéroports à Greater Poland

Données opérationnelles

Special qualification required
Heure actuelle UTC:
Heure actuelle locale:
Météo à : EPMI - Miroslawiec ( 55 km )
TAF: TAF EPMI 171100Z 1712/1724 23010KT CAVOK
Voir NOTAMs / SUP AIP / TFR affectant cet aéroport [VIEW]
Fréquences de communication: [VIEW]

Pistes:

Identifiant RWYQFULongueur (ft)Largeur (ft)SurfaceLDA (ft)
09-1°3609164GRASS
27-1°3609164GRASS

Coordonnées de l'aéroport

Adresse: Poland

Vue satellite de EPHER